createdAt,value
2022-11-12T00:01:20.791Z,13.99
2022-11-12T00:03:53.917Z,14.26
2022-11-12T00:06:21.768Z,13.86
2022-11-12T00:08:56.029Z,14.17
2022-11-12T00:11:25.620Z,14.23
2022-11-12T00:14:01.335Z,14.16
2022-11-12T00:16:28.139Z,14.31
2022-11-12T00:18:54.682Z,13.70
2022-11-12T00:21:50.907Z,14.30
2022-11-12T00:24:27.857Z,14.25
2022-11-12T00:26:54.421Z,14.19
2022-11-12T00:29:21.080Z,14.03
2022-11-12T00:31:54.192Z,13.58
2022-11-12T00:34:21.270Z,14.13
2022-11-12T00:36:48.455Z,14.11
2022-11-12T00:39:15.066Z,14.03
2022-11-12T00:41:41.817Z,14.15
2022-11-12T00:44:08.512Z,14.03
2022-11-12T00:46:35.291Z,14.11
2022-11-12T00:49:07.142Z,14.12
2022-11-12T00:51:34.632Z,13.98
2022-11-12T00:54:04.779Z,13.77
2022-11-12T00:56:35.644Z,13.97
2022-11-12T00:59:05.243Z,13.46
2022-11-12T01:01:35.078Z,13.12
2022-11-12T01:04:05.335Z,13.81
2022-11-12T01:06:32.891Z,13.77
2022-11-12T01:09:06.647Z,13.67
2022-11-12T01:11:34.972Z,13.51
2022-11-12T01:14:06.837Z,13.29
2022-11-12T01:16:38.123Z,13.54
2022-11-12T01:19:10.961Z,13.21
2022-11-12T01:21:49.597Z,12.82
2022-11-12T01:24:16.406Z,13.39
2022-11-12T01:26:43.042Z,13.26
2022-11-12T01:29:14.203Z,13.30
2022-11-12T01:31:43.323Z,13.32
2022-11-12T01:34:10.496Z,13.35
2022-11-12T01:36:41.751Z,13.34
2022-11-12T01:39:12.897Z,13.15
2022-11-12T01:41:46.245Z,13.13
2022-11-12T01:44:21.188Z,13.29
2022-11-12T01:47:06.646Z,13.24
2022-11-12T01:49:52.591Z,13.08
2022-11-12T01:52:27.514Z,12.79
2022-11-12T01:55:06.207Z,13.12
2022-11-12T01:57:45.905Z,13.25
2022-11-12T02:00:15.989Z,13.07
2022-11-12T02:02:46.569Z,13.30
2022-11-12T02:05:16.934Z,13.13
2022-11-12T02:07:46.259Z,13.07
2022-11-12T02:10:16.484Z,13.04
2022-11-12T02:13:03.110Z,13.41
2022-11-12T02:15:31.568Z,13.55
2022-11-12T02:18:00.984Z,13.50
2022-11-12T02:20:27.729Z,13.29
2022-11-12T02:22:59.717Z,13.44
2022-11-12T02:25:29.461Z,13.13
2022-11-12T02:27:58.277Z,13.30
2022-11-12T02:30:56.591Z,13.25
2022-11-12T02:33:23.061Z,13.37
2022-11-12T02:35:49.741Z,13.37
2022-11-12T02:38:17.830Z,13.38
2022-11-12T02:40:44.460Z,13.12
2022-11-12T02:43:11.032Z,13.07
2022-11-12T02:45:37.674Z,12.95
2022-11-12T02:48:04.466Z,13.21
2022-11-12T02:50:31.453Z,13.19
2022-11-12T02:53:01.174Z,13.17
2022-11-12T02:55:29.067Z,13.29
2022-11-12T02:58:02.470Z,12.32
2022-11-12T03:00:31.336Z,13.25
2022-11-12T03:03:01.482Z,13.21
2022-11-12T03:05:31.267Z,13.00
2022-11-12T03:08:07.413Z,13.34
2022-11-12T03:10:42.012Z,13.37
2022-11-12T03:13:10.328Z,13.13
2022-11-12T03:15:40.096Z,13.37
2022-11-12T03:18:07.846Z,12.73
2022-11-12T03:20:34.822Z,13.38
2022-11-12T03:23:07.426Z,13.28
2022-11-12T03:25:41.486Z,13.26
2022-11-12T03:28:12.504Z,13.16
2022-11-12T03:30:42.355Z,12.94
2022-11-12T03:33:13.753Z,13.26
2022-11-12T03:35:46.023Z,13.19
2022-11-12T03:38:12.587Z,13.20
2022-11-12T03:40:40.140Z,13.28
2022-11-12T03:43:06.782Z,12.79
2022-11-12T03:45:33.576Z,12.86
2022-11-12T03:48:00.522Z,13.28
2022-11-12T03:50:33.710Z,12.47
2022-11-12T03:53:00.659Z,13.16
2022-11-12T03:55:29.550Z,12.97
2022-11-12T03:57:58.416Z,13.09
2022-11-12T04:00:27.613Z,12.70
2022-11-12T04:02:54.533Z,13.13
2022-11-12T04:05:42.834Z,13.15
2022-11-12T04:08:37.767Z,13.04
2022-11-12T04:11:08.027Z,13.11
2022-11-12T04:13:35.374Z,12.75
2022-11-12T04:16:23.772Z,12.90
2022-11-12T04:19:21.789Z,12.45
2022-11-12T04:21:51.268Z,12.73
2022-11-12T04:24:48.750Z,13.04
2022-11-12T04:27:24.208Z,13.05
2022-11-12T04:30:10.400Z,13.04
2022-11-12T04:32:39.996Z,12.59
2022-11-12T04:35:08.919Z,13.00
2022-11-12T04:37:45.972Z,12.56
2022-11-12T04:40:42.719Z,13.00
2022-11-12T04:43:31.191Z,13.07
2022-11-12T04:46:01.198Z,13.04
2022-11-12T04:48:28.422Z,13.03
2022-11-12T04:51:03.511Z,12.69
2022-11-12T04:53:30.732Z,13.11
2022-11-12T04:55:58.851Z,13.05
2022-11-12T04:58:25.905Z,13.14
2022-11-12T05:00:52.879Z,12.95
2022-11-12T05:03:19.597Z,12.79
2022-11-12T05:05:46.138Z,12.98
2022-11-12T05:08:15.436Z,13.08
2022-11-12T05:10:42.004Z,13.10
2022-11-12T05:13:08.573Z,13.26
2022-11-12T05:15:35.187Z,12.81
2022-11-12T05:18:01.793Z,13.10
2022-11-12T05:20:28.330Z,12.99
2022-11-12T05:23:07.120Z,12.84
2022-11-12T05:25:35.907Z,13.08
2022-11-12T05:28:02.921Z,13.01
2022-11-12T05:30:29.481Z,12.90
2022-11-12T05:33:00.305Z,12.93
2022-11-12T05:35:26.956Z,13.03
2022-11-12T05:37:53.489Z,12.83
2022-11-12T05:41:10.099Z,12.82
2022-11-12T05:43:51.640Z,12.97
2022-11-12T05:46:18.778Z,12.92
2022-11-12T05:48:45.501Z,13.03
2022-11-12T05:51:20.981Z,12.96
2022-11-12T05:53:50.494Z,13.09
2022-11-12T05:56:17.182Z,13.14
2022-11-12T05:58:46.512Z,12.97
2022-11-12T06:01:13.234Z,13.12
2022-11-12T06:03:42.054Z,12.96
2022-11-12T06:06:08.699Z,12.92
2022-11-12T06:08:35.407Z,13.02
2022-11-12T06:11:02.039Z,12.74
2022-11-12T06:13:30.152Z,12.97
2022-11-12T06:15:57.154Z,12.68
2022-11-12T06:18:27.328Z,12.97
2022-11-12T06:21:12.908Z,12.99
2022-11-12T06:23:39.486Z,12.88
2022-11-12T06:26:06.576Z,12.94
2022-11-12T06:28:34.952Z,12.59
2022-11-12T06:31:01.549Z,12.81
2022-11-12T06:33:28.151Z,12.88
2022-11-12T06:36:10.062Z,12.93
2022-11-12T06:38:40.152Z,13.03
2022-11-12T06:41:08.770Z,13.03
2022-11-12T06:43:36.126Z,13.12
2022-11-12T06:46:06.522Z,12.71
2022-11-12T06:48:33.573Z,12.86
2022-11-12T06:51:12.477Z,13.17
2022-11-12T06:53:39.213Z,13.30
2022-11-12T06:56:07.548Z,13.27
2022-11-12T06:58:34.981Z,13.27
2022-11-12T07:01:12.155Z,13.22
2022-11-12T07:03:47.016Z,13.34
2022-11-12T07:06:21.514Z,13.30
2022-11-12T07:08:51.104Z,13.23
2022-11-12T07:11:24.536Z,13.22
2022-11-12T07:13:54.195Z,13.28
2022-11-12T07:16:20.698Z,13.26
2022-11-12T07:18:47.938Z,13.27
2022-11-12T07:21:19.712Z,13.23
2022-11-12T07:23:48.192Z,13.27
2022-11-12T07:26:22.076Z,13.31
2022-11-12T07:28:50.732Z,13.36
2022-11-12T07:31:19.260Z,13.50
2022-11-12T07:33:49.077Z,13.24
2022-11-12T07:36:18.093Z,13.42
2022-11-12T07:38:45.552Z,13.39
2022-11-12T07:41:13.243Z,13.53
2022-11-12T07:43:40.918Z,13.52
2022-11-12T07:46:27.908Z,13.43
2022-11-12T07:48:55.470Z,13.66
2022-11-12T07:51:24.923Z,13.70
2022-11-12T07:53:58.919Z,13.27
2022-11-12T07:56:32.241Z,13.64
2022-11-12T07:58:58.980Z,13.76
2022-11-12T08:01:33.153Z,13.81
2022-11-12T08:04:10.294Z,13.78
2022-11-12T08:06:40.073Z,13.90
2022-11-12T08:09:11.528Z,13.83
2022-11-12T08:11:38.198Z,13.73
2022-11-12T08:14:05.274Z,14.01
2022-11-12T08:16:31.936Z,13.80
2022-11-12T08:18:59.148Z,14.02
2022-11-12T08:21:32.322Z,14.03
2022-11-12T08:23:59.862Z,13.91
2022-11-12T08:26:28.071Z,13.98
2022-11-12T08:28:56.056Z,13.93
2022-11-12T08:31:22.973Z,14.25
2022-11-12T08:33:50.624Z,14.23
2022-11-12T08:36:18.354Z,14.18
2022-11-12T08:38:45.436Z,14.31
2022-11-12T08:41:18.149Z,13.88
2022-11-12T08:43:48.398Z,13.89
2022-11-12T08:46:18.262Z,14.35
2022-11-12T08:48:47.454Z,14.42
2022-11-12T08:51:14.377Z,14.22
2022-11-12T08:53:44.016Z,14.41
2022-11-12T08:56:13.499Z,14.62
2022-11-12T08:58:43.175Z,14.66
2022-11-12T09:01:15.513Z,14.40
2022-11-12T09:03:51.473Z,14.76
2022-11-12T09:06:18.112Z,14.78
2022-11-12T09:08:44.595Z,14.74
2022-11-12T09:11:23.328Z,14.91
2022-11-12T09:13:54.715Z,15.00
2022-11-12T09:16:21.951Z,14.93
2022-11-12T09:18:48.627Z,15.02
2022-11-12T09:21:15.330Z,14.98
2022-11-12T09:23:41.913Z,14.86
2022-11-12T09:26:17.277Z,15.10
2022-11-12T09:28:44.112Z,15.13
2022-11-12T09:31:10.602Z,15.01
2022-11-12T09:33:39.741Z,14.97
2022-11-12T09:36:12.659Z,14.72
2022-11-12T09:38:39.229Z,15.16
2022-11-12T09:41:24.004Z,15.12
2022-11-12T09:43:53.613Z,14.96
2022-11-12T09:46:34.099Z,15.05
2022-11-12T09:49:14.674Z,15.15
2022-11-12T09:52:03.293Z,14.95
2022-11-12T09:54:35.315Z,15.10
2022-11-12T09:57:02.586Z,14.73
2022-11-12T09:59:33.926Z,15.29
2022-11-12T10:02:39.371Z,15.16
2022-11-12T10:05:25.849Z,15.24
2022-11-12T10:08:32.735Z,15.25
2022-11-12T10:11:33.616Z,15.00
2022-11-12T10:14:18.230Z,14.94
2022-11-12T10:17:06.578Z,15.39
2022-11-12T10:19:50.664Z,15.33
2022-11-12T10:22:33.203Z,15.36
2022-11-12T10:25:16.662Z,14.51
2022-11-12T10:27:45.774Z,14.93
2022-11-12T10:30:22.857Z,15.30
2022-11-12T10:32:51.438Z,15.13
2022-11-12T10:35:25.513Z,15.09
2022-11-12T10:37:54.323Z,15.28
2022-11-12T10:40:32.961Z,15.20
2022-11-12T10:43:15.872Z,15.30
2022-11-12T10:46:40.004Z,15.31
2022-11-12T10:49:24.147Z,15.41
2022-11-12T10:52:01.370Z,15.27
2022-11-12T10:54:39.756Z,15.37
2022-11-12T10:57:26.758Z,15.49
2022-11-12T11:00:19.037Z,15.21
2022-11-12T11:02:54.203Z,15.28
2022-11-12T11:05:30.606Z,15.32
2022-11-12T11:07:58.011Z,15.41
2022-11-12T11:10:30.417Z,15.41
2022-11-12T11:13:26.703Z,15.45
2022-11-12T11:16:05.932Z,15.43
2022-11-12T11:18:36.073Z,15.09
2022-11-12T11:21:25.651Z,15.55
2022-11-12T11:23:57.890Z,15.71
2022-11-12T11:26:36.532Z,15.28
2022-11-12T11:29:34.064Z,15.47
2022-11-12T11:32:24.937Z,15.35
2022-11-12T11:35:21.185Z,15.64
2022-11-12T11:37:58.277Z,15.62
2022-11-12T11:40:46.276Z,15.74
2022-11-12T11:43:46.280Z,15.62
2022-11-12T11:46:31.708Z,15.32
2022-11-12T11:49:21.839Z,15.51
2022-11-12T11:52:00.586Z,15.59
2022-11-12T11:54:37.408Z,15.55
2022-11-12T11:57:22.908Z,15.76
2022-11-12T12:00:14.464Z,15.67
2022-11-12T12:03:04.827Z,15.69
2022-11-12T12:05:40.924Z,15.72
2022-11-12T12:08:29.933Z,15.44
2022-11-12T12:11:08.542Z,15.77
2022-11-12T12:14:20.748Z,15.85
2022-11-12T12:17:14.468Z,15.77
2022-11-12T12:20:05.947Z,14.49
2022-11-12T12:22:45.293Z,15.81
2022-11-12T12:25:21.508Z,14.85
2022-11-12T12:27:59.920Z,15.32
2022-11-12T12:30:37.190Z,15.77
2022-11-12T12:33:28.393Z,15.73
2022-11-12T12:36:13.831Z,15.11
2022-11-12T12:38:52.434Z,15.27
2022-11-12T12:41:19.242Z,15.90
2022-11-12T12:43:50.318Z,15.63
2022-11-12T12:46:22.645Z,15.71
2022-11-12T12:48:54.638Z,15.92
2022-11-12T12:51:30.976Z,15.84
2022-11-12T12:54:01.508Z,15.64
2022-11-12T12:56:57.625Z,15.90
2022-11-12T12:59:24.486Z,15.79
2022-11-12T13:02:20.035Z,15.64
2022-11-12T13:04:57.464Z,15.94
2022-11-12T13:07:42.103Z,15.88
2022-11-12T13:10:47.262Z,15.85
2022-11-12T13:13:21.000Z,15.86
2022-11-12T13:15:51.355Z,15.80
2022-11-12T13:18:40.275Z,15.96
2022-11-12T13:21:16.362Z,15.80
2022-11-12T13:24:07.147Z,15.34
2022-11-12T13:26:48.506Z,15.46
2022-11-12T13:29:18.981Z,15.68
2022-11-12T13:31:45.763Z,15.73
2022-11-12T13:34:18.393Z,15.81
2022-11-12T13:36:59.680Z,15.73
2022-11-12T13:39:31.928Z,15.59
2022-11-12T13:42:17.645Z,15.98
2022-11-12T13:44:55.819Z,15.91
2022-11-12T13:47:24.768Z,15.79
2022-11-12T13:49:51.403Z,15.64
2022-11-12T13:52:19.517Z,15.91
2022-11-12T13:54:46.117Z,15.86
2022-11-12T13:57:15.120Z,15.53
2022-11-12T13:59:41.838Z,15.48
2022-11-12T14:02:27.622Z,15.63
2022-11-12T14:04:58.113Z,15.63
2022-11-12T14:07:27.679Z,15.87
2022-11-12T14:10:09.646Z,15.83
2022-11-12T14:13:02.927Z,15.88
2022-11-12T14:16:01.847Z,15.88
2022-11-12T14:18:44.289Z,15.80
2022-11-12T14:21:18.422Z,15.65
2022-11-12T14:23:47.723Z,15.77
2022-11-12T14:26:32.760Z,15.69
2022-11-12T14:29:02.731Z,15.75
2022-11-12T14:31:32.727Z,15.38
2022-11-12T14:34:36.629Z,15.74
2022-11-12T14:37:03.590Z,15.05
2022-11-12T14:39:30.859Z,15.63
2022-11-12T14:41:59.508Z,15.70
2022-11-12T14:44:35.618Z,14.28
2022-11-12T14:47:02.634Z,15.55
2022-11-12T14:49:44.690Z,15.61
2022-11-12T14:52:22.922Z,15.65
2022-11-12T14:54:56.951Z,14.94
2022-11-12T14:57:33.492Z,15.56
2022-11-12T15:00:19.014Z,15.48
2022-11-12T15:02:58.937Z,15.45
2022-11-12T15:05:27.911Z,14.72
2022-11-12T15:07:58.665Z,15.06
2022-11-12T15:10:41.704Z,15.17
2022-11-12T15:13:37.836Z,15.44
2022-11-12T15:16:10.127Z,15.23
2022-11-12T15:18:39.722Z,15.13
2022-11-12T15:21:32.339Z,14.97
2022-11-12T15:24:18.312Z,15.30
2022-11-12T15:26:53.194Z,15.20
2022-11-12T15:29:33.641Z,13.79
2022-11-12T15:32:26.632Z,15.22
2022-11-12T15:35:05.808Z,14.99
2022-11-12T15:37:40.392Z,14.47
2022-11-12T15:40:13.113Z,14.85
2022-11-12T15:42:50.562Z,15.02
2022-11-12T15:45:22.238Z,14.95
2022-11-12T15:47:53.185Z,14.99
2022-11-12T15:50:25.304Z,14.97
2022-11-12T15:52:54.373Z,14.45
2022-11-12T15:55:21.071Z,14.83
2022-11-12T15:57:52.230Z,14.71
2022-11-12T16:00:35.605Z,14.67
2022-11-12T16:03:21.792Z,14.73
2022-11-12T16:05:48.983Z,14.68
2022-11-12T16:08:16.449Z,14.69
2022-11-12T16:10:45.438Z,14.64
2022-11-12T16:13:27.426Z,14.60
2022-11-12T16:15:55.042Z,14.55
2022-11-12T16:18:21.827Z,14.55
2022-11-12T16:20:49.893Z,14.49
2022-11-12T16:23:16.664Z,14.67
2022-11-12T16:25:44.664Z,14.63
2022-11-12T16:28:16.664Z,14.45
2022-11-12T16:30:44.798Z,14.22
2022-11-12T16:33:13.363Z,14.55
2022-11-12T16:35:43.531Z,14.57
2022-11-12T16:38:15.769Z,14.33
2022-11-12T16:40:43.804Z,14.52
2022-11-12T16:43:10.838Z,14.39
2022-11-12T16:45:42.630Z,14.20
2022-11-12T16:48:19.918Z,14.55
2022-11-12T16:50:46.899Z,14.03
2022-11-12T16:53:13.669Z,14.52
2022-11-12T16:55:41.327Z,14.42
2022-11-12T16:58:16.104Z,14.43
2022-11-12T17:03:24.647Z,14.52
2022-11-12T17:05:52.776Z,14.64
2022-11-12T17:08:19.761Z,14.46
2022-11-12T17:10:46.594Z,14.58
2022-11-12T17:13:15.345Z,14.61
2022-11-12T17:15:42.972Z,14.54
2022-11-12T17:18:10.365Z,14.05
2022-11-12T17:20:37.045Z,14.76
2022-11-12T17:23:06.862Z,14.58
2022-11-12T17:25:33.532Z,14.51
2022-11-12T17:28:03.319Z,14.60
2022-11-12T17:30:37.457Z,14.50
2022-11-12T17:33:04.189Z,14.67
2022-11-12T17:35:34.569Z,14.51
2022-11-12T17:38:01.627Z,14.13
2022-11-12T17:40:31.348Z,14.41
2022-11-12T17:42:58.129Z,14.60
2022-11-12T17:45:25.114Z,14.30
2022-11-12T17:47:52.765Z,14.41
2022-11-12T17:50:22.487Z,14.58
2022-11-12T17:52:49.134Z,14.02
2022-11-12T17:55:21.508Z,14.07
2022-11-12T17:57:49.322Z,14.02
2022-11-12T18:00:19.385Z,14.45
2022-11-12T18:02:46.283Z,14.23
2022-11-12T18:05:13.325Z,14.30
2022-11-12T18:07:40.113Z,13.92
2022-11-12T18:10:06.788Z,14.54
2022-11-12T18:12:33.399Z,14.69
2022-11-12T18:15:06.788Z,14.41
2022-11-12T18:17:36.618Z,14.40
2022-11-12T18:20:03.717Z,14.45
2022-11-12T18:22:30.411Z,13.86
2022-11-12T18:24:57.233Z,14.42
2022-11-12T18:27:24.095Z,14.41
2022-11-12T18:29:58.726Z,14.10
2022-11-12T18:32:30.275Z,14.37
2022-11-12T18:34:57.096Z,14.36
2022-11-12T18:37:23.939Z,14.40
2022-11-12T18:39:56.320Z,14.46
2022-11-12T18:42:23.257Z,14.39
2022-11-12T18:44:51.257Z,14.29
2022-11-12T18:47:26.718Z,13.94
2022-11-12T18:49:53.976Z,14.25
2022-11-12T18:52:23.289Z,14.08
2022-11-12T18:54:51.043Z,12.86
2022-11-12T18:57:18.046Z,14.32
2022-11-12T18:59:48.084Z,13.78
2022-11-12T19:02:14.905Z,13.75
2022-11-12T19:04:45.394Z,13.72
2022-11-12T19:07:12.846Z,13.43
2022-11-12T19:09:39.736Z,13.89
2022-11-12T19:12:06.782Z,14.18
2022-11-12T19:14:33.555Z,14.34
2022-11-12T19:17:04.698Z,14.31
2022-11-12T19:19:31.250Z,14.06
2022-11-12T19:22:11.108Z,14.21
2022-11-12T19:24:40.207Z,14.18
2022-11-12T19:27:06.740Z,13.92
2022-11-12T19:29:36.495Z,14.14
2022-11-12T19:32:03.714Z,14.04
2022-11-12T19:34:31.386Z,13.16
2022-11-12T19:39:55.511Z,14.17
2022-11-12T19:42:22.402Z,14.05
2022-11-12T19:44:52.222Z,13.64
2022-11-12T19:47:22.526Z,14.08
2022-11-12T19:49:57.891Z,13.78
2022-11-12T19:52:31.801Z,14.18
2022-11-12T19:55:07.833Z,13.39
2022-11-12T19:57:34.716Z,14.02
2022-11-12T20:00:01.537Z,13.89
2022-11-12T20:02:33.935Z,13.65
2022-11-12T20:05:04.053Z,14.07
2022-11-12T20:07:31.261Z,13.92
2022-11-12T20:10:03.838Z,13.71
2022-11-12T20:12:36.837Z,12.73
2022-11-12T20:15:03.771Z,13.15
2022-11-12T20:17:32.662Z,13.89
2022-11-12T20:19:59.830Z,13.92
2022-11-12T20:22:36.274Z,13.51
2022-11-12T20:25:03.020Z,14.00
2022-11-12T20:27:29.652Z,13.48
2022-11-12T20:32:44.148Z,13.95
2022-11-12T20:35:19.295Z,13.70
2022-11-12T20:37:47.969Z,13.70
2022-11-12T20:40:14.594Z,13.51
2022-11-12T20:42:41.627Z,13.68
2022-11-12T20:45:09.024Z,13.55
2022-11-12T20:47:35.592Z,13.54
2022-11-12T20:50:04.575Z,13.56
2022-11-12T20:52:31.362Z,13.15
2022-11-12T20:55:04.324Z,13.60
2022-11-12T20:57:31.939Z,13.47
2022-11-12T20:59:58.783Z,13.53
2022-11-12T21:02:25.483Z,13.51
2022-11-12T21:04:54.630Z,13.54
2022-11-12T21:07:23.437Z,13.52
2022-11-12T21:09:50.031Z,13.35
2022-11-12T21:12:19.425Z,13.31
2022-11-12T21:14:50.949Z,13.31
2022-11-12T21:17:18.173Z,13.44
2022-11-12T21:19:44.730Z,13.60
2022-11-12T21:22:11.288Z,13.52
2022-11-12T21:24:37.844Z,13.32
2022-11-12T21:27:04.596Z,13.15
2022-11-12T21:29:33.195Z,13.39
2022-11-12T21:32:00.479Z,12.50
2022-11-12T21:34:27.008Z,12.88
2022-11-12T21:36:53.610Z,13.24
2022-11-12T21:39:20.243Z,12.31
2022-11-12T21:41:46.838Z,12.98
2022-11-12T21:44:13.407Z,12.98
2022-11-12T21:46:40.499Z,12.76
2022-11-12T21:49:07.223Z,12.73
2022-11-12T21:51:33.887Z,12.83
2022-11-12T21:54:04.999Z,11.99
2022-11-12T21:56:34.135Z,11.75
2022-11-12T21:59:01.626Z,12.70
2022-11-12T22:01:32.608Z,12.52
2022-11-12T22:03:59.899Z,12.61
2022-11-12T22:06:29.901Z,12.99
2022-11-12T22:08:57.730Z,12.95
2022-11-12T22:11:25.502Z,12.41
2022-11-12T22:13:54.310Z,12.60
2022-11-12T22:16:26.382Z,11.92
2022-11-12T22:18:54.822Z,12.92
2022-11-12T22:21:39.675Z,12.89
2022-11-12T22:24:06.858Z,12.99
2022-11-12T22:26:36.356Z,12.87
2022-11-12T22:29:06.307Z,12.96
2022-11-12T22:31:35.683Z,12.65
2022-11-12T22:34:02.944Z,13.00
2022-11-12T22:36:34.990Z,13.07
2022-11-12T22:39:01.595Z,13.02
2022-11-12T22:41:31.003Z,12.97
2022-11-12T22:44:02.277Z,12.78
2022-11-12T22:46:35.184Z,12.76
2022-11-12T22:49:03.566Z,12.88
2022-11-12T22:51:32.068Z,12.96
2022-11-12T22:54:01.082Z,13.02
2022-11-12T22:56:28.867Z,13.07
2022-11-12T22:58:56.074Z,12.94
2022-11-12T23:01:31.217Z,12.78
2022-11-12T23:04:00.508Z,12.58
2022-11-12T23:06:30.901Z,12.64
2022-11-12T23:08:59.187Z,12.63
2022-11-12T23:11:27.804Z,12.73
2022-11-12T23:13:55.523Z,12.80
2022-11-12T23:16:24.518Z,12.73
2022-11-12T23:18:52.594Z,11.95
2022-11-12T23:21:22.482Z,12.71
2022-11-12T23:23:49.260Z,12.13
2022-11-12T23:26:20.951Z,12.69
2022-11-12T23:28:47.647Z,12.61
2022-11-12T23:31:26.177Z,12.25
2022-11-12T23:34:00.340Z,12.46
2022-11-12T23:36:29.672Z,12.32
2022-11-12T23:38:59.477Z,12.18
2022-11-12T23:41:27.257Z,10.79
2022-11-12T23:43:55.640Z,12.31
2022-11-12T23:46:25.536Z,12.12
2022-11-12T23:48:52.156Z,12.18
2022-11-12T23:51:20.755Z,12.18
2022-11-12T23:53:48.924Z,12.13
2022-11-12T23:56:18.116Z,11.60
2022-11-12T23:58:44.595Z,12.09
